Time;durP1;ratioP1;P1;durP2;ratioP2;P2;SDS_P1;SDS_P2;PMS_P1;PMS_P2;Temp;Humidity;BMP_temperature;BMP_pressure;BME280_temperature;BME280_humidity;BME280_pressure;Samples;Min_cycle;Max_cycle;Signal;HPM_P1;HPM_P2
2023/06/22 00:00:34;;;;;;;11.82;6.55;;;;;;;21.23;100.00;96499.41;4956113;29;20222;-60
2023/06/22 00:03:01;;;;;;;11.35;6.28;;;;;;;21.21;100.00;96498.81;4956642;28;20282;-60
2023/06/22 00:05:27;;;;;;;14.13;6.68;;;;;;;21.19;100.00;96500.88;4956498;29;20210;-63
2023/06/22 00:07:55;;;;;;;7.25;5.80;;;;;;;21.16;100.00;96495.91;4956848;29;20210;-60
2023/06/22 00:10:21;;;;;;;9.10;5.97;;;;;;;21.03;100.00;96493.25;4957767;28;20202;-60
2023/06/22 00:12:48;;;;;;;8.52;6.13;;;;;;;21.01;100.00;96501.50;4956500;29;20683;-60
2023/06/22 00:15:15;;;;;;;9.52;6.78;;;;;;;21.01;100.00;96503.41;4957231;29;20218;-60
2023/06/22 00:17:41;;;;;;;16.42;9.18;;;;;;;20.98;100.00;96499.25;4964324;29;20199;-60
2023/06/22 00:20:10;;;;;;;11.77;8.27;;;;;;;20.95;100.00;96502.38;4963951;29;20206;-59
2023/06/22 00:22:38;;;;;;;12.77;6.40;;;;;;;20.82;100.00;96500.53;4960642;29;20224;-62
2023/06/22 00:25:08;;;;;;;9.50;6.40;;;;;;;20.84;100.00;96503.00;4951773;29;20215;-61
2023/06/22 00:27:34;;;;;;;9.07;6.30;;;;;;;20.81;100.00;96496.19;4961933;29;20218;-61
2023/06/22 00:30:00;;;;;;;8.60;5.68;;;;;;;20.76;100.00;96493.31;4961397;29;20217;-60
2023/06/22 00:32:27;;;;;;;10.25;6.28;;;;;;;20.74;100.00;96495.38;4960491;29;20206;-60
2023/06/22 00:34:54;;;;;;;10.38;6.00;;;;;;;20.73;100.00;96496.41;4958708;29;20639;-61
2023/06/22 00:37:22;;;;;;;11.95;5.63;;;;;;;20.66;100.00;96500.97;4961205;29;20210;-60
2023/06/22 00:39:50;;;;;;;12.77;6.40;;;;;;;20.56;100.00;96497.06;4957877;29;20213;-60
2023/06/22 00:42:18;;;;;;;7.72;5.70;;;;;;;20.58;100.00;96493.13;4945945;29;20277;-60
2023/06/22 00:44:44;;;;;;;9.85;6.05;;;;;;;20.51;100.00;96508.44;4956681;28;20214;-60
2023/06/22 00:47:12;;;;;;;9.18;6.30;;;;;;;20.51;100.00;96510.31;4958245;28;20213;-60
2023/06/22 00:49:39;;;;;;;8.52;6.20;;;;;;;20.43;100.00;96508.66;4956752;28;20217;-60
2023/06/22 00:52:09;;;;;;;10.00;5.80;;;;;;;20.45;100.00;96503.06;4958685;29;20206;-61
2023/06/22 00:54:37;;;;;;;9.27;6.20;;;;;;;20.37;100.00;96505.97;4960031;29;20234;-60
2023/06/22 00:57:05;;;;;;;11.10;6.07;;;;;;;20.34;100.00;96509.88;4952460;29;20216;-60
2023/06/22 00:59:34;;;;;;;10.85;6.25;;;;;;;20.38;100.00;96508.44;4958863;29;20658;-60
2023/06/22 01:02:00;;;;;;;8.38;6.40;;;;;;;20.35;100.00;96503.50;4958521;28;20674;-61
2023/06/22 01:04:36;;;;;;;7.35;5.80;;;;;;;20.31;100.00;96513.00;4958758;29;20565;-60
2023/06/22 01:07:10;;;;;;;7.90;6.00;;;;;;;20.28;100.00;96524.97;4953531;28;20578;-60
2023/06/22 01:09:44;;;;;;;10.95;6.07;;;;;;;20.24;100.00;96521.03;4959416;28;20226;-61
2023/06/22 01:12:10;;;;;;;11.68;6.18;;;;;;;20.23;100.00;96526.59;4958307;29;20198;-61
2023/06/22 01:14:42;;;;;;;9.23;6.28;;;;;;;20.18;100.00;96529.06;4957070;29;20206;-60
2023/06/22 01:17:10;;;;;;;9.52;5.80;;;;;;;20.17;100.00;96544.34;4955401;29;20347;-60
2023/06/22 01:19:41;;;;;;;9.73;5.72;;;;;;;20.15;100.00;96550.97;4958768;29;20744;-60
2023/06/22 01:22:15;;;;;;;7.78;5.88;;;;;;;20.15;100.00;96561.72;4958949;29;20214;-60
2023/06/22 01:24:48;;;;;;;9.95;6.07;;;;;;;20.13;100.00;96553.84;4958693;29;20286;-60
2023/06/22 01:27:33;;;;;;;9.20;6.10;;;;;;;20.12;100.00;96559.44;4958545;29;20225;-60
2023/06/22 01:30:02;;;;;;;9.27;5.88;;;;;;;20.14;100.00;96565.41;4958567;29;20202;-60
2023/06/22 01:32:32;;;;;;;7.32;5.90;;;;;;;20.10;100.00;96556.13;4959333;29;20203;-60
2023/06/22 01:35:00;;;;;;;8.30;5.60;;;;;;;20.13;100.00;96558.38;4959505;29;20210;-59
2023/06/22 01:37:27;;;;;;;8.63;6.10;;;;;;;20.13;100.00;96563.75;4959865;29;20218;-60
2023/06/22 01:39:54;;;;;;;9.52;5.88;;;;;;;20.11;100.00;96549.72;4962895;29;20201;-60
2023/06/22 01:42:24;;;;;;;9.57;6.05;;;;;;;20.13;100.00;96537.75;4979869;29;20238;-61
2023/06/22 01:44:50;;;;;;;9.35;6.75;;;;;;;20.13;100.00;96547.66;4980360;29;20213;-60
2023/06/22 01:47:21;;;;;;;8.85;6.20;;;;;;;20.07;100.00;96540.41;4968775;28;20230;-61
2023/06/22 01:49:51;;;;;;;12.45;6.57;;;;;;;20.08;100.00;96542.09;4967414;28;20210;-61
2023/06/22 01:52:18;;;;;;;12.85;6.50;;;;;;;20.07;100.00;96543.09;4944849;29;20214;-60
2023/06/22 01:54:44;;;;;;;8.73;6.20;;;;;;;20.14;100.00;96554.69;4959204;29;20273;-60
2023/06/22 01:57:11;;;;;;;11.88;6.70;;;;;;;20.14;100.00;96555.50;4959550;29;20223;-61
2023/06/22 01:59:42;;;;;;;8.82;6.50;;;;;;;20.09;100.00;96547.22;4959145;29;20635;-60
2023/06/22 02:02:10;;;;;;;13.63;7.03;;;;;;;20.04;100.00;96549.72;4957797;28;20294;-60
2023/06/22 02:04:43;;;;;;;8.10;6.32;;;;;;;20.04;100.00;96540.84;4959214;29;20206;-60
2023/06/22 02:07:13;;;;;;;11.15;5.95;;;;;;;20.06;100.00;96552.19;4961267;29;20274;-61
2023/06/22 02:09:44;;;;;;;14.70;6.65;;;;;;;20.00;100.00;96553.00;4969214;29;20207;-60
2023/06/22 02:12:12;;;;;;;9.30;6.25;;;;;;;20.03;100.00;96553.41;4966412;29;20274;-60
2023/06/22 02:14:39;;;;;;;12.77;6.53;;;;;;;19.94;100.00;96554.66;4959658;29;20213;-60
2023/06/22 02:17:07;;;;;;;9.27;6.53;;;;;;;19.92;100.00;96554.03;4947937;29;20648;-61
2023/06/22 02:19:38;;;;;;;9.20;5.95;;;;;;;19.98;100.00;96538.97;4958113;29;20210;-61
2023/06/22 02:22:05;;;;;;;11.73;7.00;;;;;;;19.92;100.00;96534.41;4955421;29;20671;-60
2023/06/22 02:24:33;;;;;;;9.05;6.10;;;;;;;19.92;100.00;96534.41;4957986;29;20214;-59
2023/06/22 02:26:59;;;;;;;8.60;5.85;;;;;;;19.90;100.00;96533.78;4955887;29;20222;-60
2023/06/22 02:29:26;;;;;;;9.07;6.72;;;;;;;19.86;100.00;96528.84;4957831;29;20214;-60
2023/06/22 02:31:53;;;;;;;13.27;6.57;;;;;;;19.84;100.00;96524.69;4955599;29;20210;-60
2023/06/22 02:34:19;;;;;;;7.72;6.30;;;;;;;19.87;100.00;96535.84;4957749;29;20226;-60
2023/06/22 02:36:51;;;;;;;9.52;6.20;;;;;;;19.90;100.00;96537.31;4957950;29;20218;-60
2023/06/22 02:39:20;;;;;;;8.02;6.15;;;;;;;19.84;100.00;96533.56;4958147;29;20210;-61
2023/06/22 02:41:47;;;;;;;10.40;6.50;;;;;;;19.87;100.00;96549.25;4940959;29;20571;-60
2023/06/22 02:44:13;;;;;;;10.48;6.18;;;;;;;19.86;100.00;96546.78;4953196;29;20671;-60
2023/06/22 02:46:40;;;;;;;9.02;5.78;;;;;;;19.86;100.00;96531.50;4958612;28;20210;-60
2023/06/22 02:49:06;;;;;;;8.75;6.18;;;;;;;19.82;100.00;96530.25;4957384;29;20218;-60
2023/06/22 02:51:34;;;;;;;9.45;6.72;;;;;;;19.82;100.00;96530.25;4961836;28;20209;-61
2023/06/22 02:54:02;;;;;;;13.88;6.40;;;;;;;19.78;100.00;96529.00;4963466;28;20271;-61
2023/06/22 02:56:30;;;;;;;10.27;6.30;;;;;;;19.79;100.00;96521.78;4956954;29;20210;-59
2023/06/22 02:59:01;;;;;;;10.45;6.25;;;;;;;19.73;100.00;96531.47;4956954;29;20206;-60
2023/06/22 03:01:27;;;;;;;9.75;5.88;;;;;;;19.74;100.00;96522.41;4955458;29;20222;-60
2023/06/22 03:03:56;;;;;;;7.68;5.63;;;;;;;19.77;100.00;96526.53;4957828;28;20298;-59
2023/06/22 03:06:28;;;;;;;10.00;6.30;;;;;;;19.71;100.00;96528.16;4957639;29;20551;-60
2023/06/22 03:09:00;;;;;;;11.43;6.30;;;;;;;19.74;100.00;96532.28;4957455;29;20206;-61
2023/06/22 03:11:33;;;;;;;9.45;6.18;;;;;;;19.69;100.00;96535.59;4947708;29;20210;-60
2023/06/22 03:14:00;;;;;;;7.90;6.15;;;;;;;19.72;100.00;96531.69;4956463;28;20270;-59
2023/06/22 03:16:27;;;;;;;13.18;5.82;;;;;;;19.69;100.00;96537.47;4960401;28;20206;-60
2023/06/22 03:18:54;;;;;;;10.45;6.05;;;;;;;19.68;100.00;96533.13;4954066;29;20211;-61
2023/06/22 03:21:23;;;;;;;9.90;6.43;;;;;;;19.62;100.00;96523.19;4949828;29;20262;-60
2023/06/22 03:23:53;;;;;;;13.18;6.70;;;;;;;19.59;100.00;96523.59;4956193;29;20210;-60
2023/06/22 03:26:20;;;;;;;8.80;6.30;;;;;;;19.55;100.00;96520.50;4957673;29;20214;-59
2023/06/22 03:28:48;;;;;;;9.15;6.40;;;;;;;19.60;100.00;96530.59;4957529;29;20244;-60
2023/06/22 03:31:15;;;;;;;13.63;6.88;;;;;;;19.60;100.00;96520.72;4957220;29;20214;-60
2023/06/22 03:33:41;;;;;;;13.05;7.00;;;;;;;19.56;100.00;96522.13;4956723;29;20210;-60
2023/06/22 03:36:08;;;;;;;9.93;6.32;;;;;;;19.53;100.00;96521.72;4957274;29;20620;-59
2023/06/22 03:38:34;;;;;;;10.90;6.22;;;;;;;19.50;100.00;96522.94;4956895;29;20274;-59
2023/06/22 03:41:01;;;;;;;12.27;7.07;;;;;;;19.49;100.00;96523.97;4957036;29;20214;-61
2023/06/22 03:43:27;;;;;;;11.43;6.68;;;;;;;19.49;100.00;96528.50;4939890;29;20983;-60
2023/06/22 03:45:58;;;;;;;11.25;6.78;;;;;;;19.49;100.00;96518.59;4958406;28;20274;-61
2023/06/22 03:48:25;;;;;;;10.52;6.88;;;;;;;19.52;100.00;96507.47;4944860;29;20770;-60
2023/06/22 03:50:53;;;;;;;15.75;10.38;;;;;;;19.52;100.00;96502.09;4972489;29;20239;-60
2023/06/22 03:53:20;;;;;;;9.73;7.47;;;;;;;19.55;100.00;96506.25;4975418;29;20243;-60
2023/06/22 03:55:52;;;;;;;14.65;7.13;;;;;;;19.54;100.00;96500.06;4971221;29;20225;-60
2023/06/22 03:58:19;;;;;;;12.20;7.30;;;;;;;19.53;100.00;96503.75;4953579;29;20555;-60
2023/06/22 04:00:47;;;;;;;15.23;7.20;;;;;;;19.51;100.00;96500.47;4951925;29;20237;-60
2023/06/22 04:03:15;;;;;;;14.50;6.80;;;;;;;19.53;100.00;96494.88;4953061;29;20258;-59
2023/06/22 04:05:44;;;;;;;9.15;6.68;;;;;;;19.53;100.00;96497.56;4956873;29;20274;-60
2023/06/22 04:08:11;;;;;;;8.57;6.80;;;;;;;19.53;100.00;96498.41;4956882;28;20217;-60
2023/06/22 04:10:37;;;;;;;10.52;6.43;;;;;;;19.57;100.00;96505.03;4956684;29;20318;-59
2023/06/22 04:13:06;;;;;;;9.23;7.22;;;;;;;19.60;100.00;96501.94;4956186;29;20234;-60
2023/06/22 04:15:32;;;;;;;10.85;6.63;;;;;;;19.66;100.00;96497.63;4955992;29;20203;-60
2023/06/22 04:17:59;;;;;;;8.63;6.80;;;;;;;19.63;100.00;96498.84;4959204;29;20222;-60
2023/06/22 04:20:31;;;;;;;11.10;6.88;;;;;;;19.67;100.00;96500.09;4956179;29;20222;-61
2023/06/22 04:22:59;;;;;;;11.57;7.22;;;;;;;19.69;100.00;96500.72;4956548;29;20229;-60
2023/06/22 04:25:26;;;;;;;8.02;6.63;;;;;;;19.76;100.00;96503.41;4957724;28;20546;-59
2023/06/22 04:27:52;;;;;;;7.88;6.72;;;;;;;19.77;100.00;96497.00;4960227;29;20210;-59
2023/06/22 04:30:19;;;;;;;7.60;6.82;;;;;;;19.81;100.00;96501.75;4958724;29;20211;-60
2023/06/22 04:32:45;;;;;;;11.10;6.95;;;;;;;19.82;100.00;96495.38;4951141;29;20211;-60
2023/06/22 04:35:12;;;;;;;8.65;6.80;;;;;;;19.88;100.00;96491.88;4941888;29;20214;-59
2023/06/22 04:37:40;;;;;;;10.50;6.97;;;;;;;19.94;100.00;96494.78;4951599;29;20215;-59
2023/06/22 04:40:12;;;;;;;9.90;6.85;;;;;;;20.00;100.00;96491.25;4947474;29;20217;-59
2023/06/22 04:42:39;;;;;;;11.43;7.28;;;;;;;20.07;100.00;96489.41;4954154;29;20210;-59
2023/06/22 04:45:07;;;;;;;10.75;6.80;;;;;;;20.11;100.00;96486.13;4943511;29;20200;-58
2023/06/22 04:47:33;;;;;;;8.75;6.53;;;;;;;20.20;100.00;96489.41;4954981;28;20207;-59
2023/06/22 04:50:02;;;;;;;11.25;6.82;;;;;;;20.31;100.00;96484.28;4954085;29;20207;-59
2023/06/22 04:52:29;;;;;;;12.00;6.80;;;;;;;20.40;100.00;96479.53;4951353;29;20533;-61
2023/06/22 04:54:59;;;;;;;7.55;6.22;;;;;;;20.51;100.00;96475.38;4958706;29;20301;-59
2023/06/22 04:57:32;;;;;;;10.85;6.65;;;;;;;20.59;100.00;96484.03;4959148;29;20226;-60
2023/06/22 05:00:14;;;;;;;12.93;7.00;;;;;;;20.71;100.00;96486.91;4953868;29;20199;-60
2023/06/22 05:02:41;;;;;;;7.07;6.18;;;;;;;20.82;100.00;96484.41;4959116;29;20306;-61
2023/06/22 05:05:08;;;;;;;10.48;7.60;;;;;;;20.87;100.00;96482.97;4958762;29;20547;-60
2023/06/22 05:07:34;;;;;;;7.25;6.50;;;;;;;20.98;100.00;96487.66;4959422;29;20543;-60
2023/06/22 05:10:03;;;;;;;11.98;7.22;;;;;;;21.06;100.00;96490.13;4959104;29;20288;-61
2023/06/22 05:12:30;;;;;;;6.78;6.18;;;;;;;21.14;100.00;96488.06;4957654;29;20242;-60
2023/06/22 05:14:56;;;;;;;9.05;6.57;;;;;;;21.27;100.00;96484.50;4959812;29;20210;-60
2023/06/22 05:17:23;;;;;;;8.32;7.00;;;;;;;21.39;100.00;96473.91;4951480;29;20243;-61
2023/06/22 05:19:50;;;;;;;10.65;7.43;;;;;;;21.48;100.00;96478.81;4959363;29;20291;-61
2023/06/22 05:22:16;;;;;;;12.93;8.18;;;;;;;21.54;100.00;96483.31;4959151;29;20234;-60
2023/06/22 05:24:43;;;;;;;11.60;8.18;;;;;;;21.63;100.00;96476.66;4959276;29;20294;-60
2023/06/22 05:27:11;;;;;;;8.05;7.25;;;;;;;21.75;100.00;96474.13;4959190;29;20223;-61
2023/06/22 05:29:38;;;;;;;13.10;7.90;;;;;;;21.88;100.00;96483.97;4959159;29;20217;-61
2023/06/22 05:32:10;;;;;;;11.10;7.78;;;;;;;22.01;100.00;96486.59;4951667;28;20286;-61
2023/06/22 05:34:37;;;;;;;9.77;6.70;;;;;;;22.14;100.00;96478.44;4958861;28;20198;-62
2023/06/22 05:37:04;;;;;;;11.35;6.70;;;;;;;22.29;100.00;96481.59;4959015;28;20222;-59
2023/06/22 05:39:30;;;;;;;8.70;7.07;;;;;;;22.39;100.00;96475.72;4959302;29;20210;-59
2023/06/22 05:41:57;;;;;;;8.18;6.72;;;;;;;22.49;100.00;96481.44;4959659;29;20206;-58
2023/06/22 05:44:24;;;;;;;9.75;7.25;;;;;;;22.56;100.00;96492.97;4958404;28;20214;-59
2023/06/22 05:46:51;;;;;;;12.85;7.63;;;;;;;22.61;100.00;96483.16;4958756;28;20214;-59
2023/06/22 05:49:18;;;;;;;14.15;7.97;;;;;;;22.70;100.00;96479.19;4960735;29;20301;-58
2023/06/22 05:51:44;;;;;;;10.85;6.72;;;;;;;22.77;100.00;96479.94;4960213;29;20241;-60
2023/06/22 05:54:13;;;;;;;12.10;7.63;;;;;;;22.92;100.00;96476.06;4962542;29;20662;-60
2023/06/22 05:56:41;;;;;;;9.73;7.20;;;;;;;23.01;100.00;96478.22;4964740;29;20202;-61
2023/06/22 05:59:07;;;;;;;12.98;7.40;;;;;;;23.17;100.00;96483.00;4974959;29;20210;-60
2023/06/22 06:01:35;;;;;;;11.52;7.45;;;;;;;23.32;100.00;96482.63;4976748;29;20607;-59
2023/06/22 06:04:03;;;;;;;11.50;8.40;;;;;;;23.47;100.00;96485.78;4956441;29;20245;-59
2023/06/22 06:06:30;;;;;;;11.18;7.30;;;;;;;23.65;100.00;96483.06;4948101;29;20301;-59
2023/06/22 06:08:56;;;;;;;10.88;7.18;;;;;;;23.78;100.00;96495.53;4942554;29;20225;-59
2023/06/22 06:11:24;;;;;;;11.43;7.32;;;;;;;23.90;100.00;96490.19;4948037;29;20220;-59
2023/06/22 06:13:51;;;;;;;9.50;6.97;;;;;;;24.06;100.00;96495.75;4957386;29;20234;-59
2023/06/22 06:16:17;;;;;;;10.10;6.93;;;;;;;24.20;100.00;96496.41;4957569;29;20220;-60
2023/06/22 06:18:45;;;;;;;10.32;7.63;;;;;;;24.18;99.69;96495.81;4957673;29;20214;-60
2023/06/22 06:21:11;;;;;;;12.75;7.93;;;;;;;24.16;100.00;96498.75;4957777;29;20214;-59
2023/06/22 06:23:38;;;;;;;11.27;7.97;;;;;;;24.23;100.00;96501.38;4957176;29;20683;-60
2023/06/22 06:26:06;;;;;;;11.98;7.18;;;;;;;24.37;100.00;96502.81;4957488;29;20525;-60
2023/06/22 06:28:33;;;;;;;12.68;8.30;;;;;;;24.41;99.90;96495.84;4957548;29;20325;-59
2023/06/22 06:30:59;;;;;;;9.10;6.85;;;;;;;24.54;99.19;96509.16;4957025;29;20231;-60
2023/06/22 06:33:26;;;;;;;9.27;7.05;;;;;;;24.69;98.82;96506.00;4945669;29;20251;-60
2023/06/22 06:35:55;;;;;;;8.85;6.60;;;;;;;24.88;97.85;96506.72;4938381;29;20215;-60
2023/06/22 06:38:22;;;;;;;8.00;6.78;;;;;;;25.06;96.51;96515.53;4938290;29;20704;-59
2023/06/22 06:40:48;;;;;;;10.05;7.57;;;;;;;25.19;95.26;96511.75;4938569;29;20207;-59
2023/06/22 06:43:15;;;;;;;10.27;7.13;;;;;;;25.29;95.32;96509.28;4942555;29;20235;-59
2023/06/22 06:45:41;;;;;;;11.70;7.90;;;;;;;25.44;92.48;96515.00;4938076;28;20555;-59
2023/06/22 06:48:09;;;;;;;10.40;7.93;;;;;;;25.48;92.78;96510.75;4944618;28;20217;-59
2023/06/22 06:50:35;;;;;;;13.80;6.30;;;;;;;25.68;93.01;96505.75;4957127;29;20695;-60
2023/06/22 06:53:03;;;;;;;9.57;7.47;;;;;;;25.87;93.19;96513.69;4957376;29;20537;-60
2023/06/22 06:55:32;;;;;;;11.82;7.68;;;;;;;25.91;91.25;96504.03;4956847;29;20631;-61
2023/06/22 06:57:59;;;;;;;10.85;8.00;;;;;;;26.03;91.28;96502.91;4938118;29;20599;-59
2023/06/22 07:00:26;;;;;;;14.45;8.48;;;;;;;26.25;89.79;96511.22;4938089;29;20634;-59
2023/06/22 07:02:54;;;;;;;18.52;8.48;;;;;;;26.41;88.83;96502.25;4950826;29;20246;-61
2023/06/22 07:05:20;;;;;;;13.25;8.05;;;;;;;26.47;88.07;96509.41;4938197;29;20648;-60
2023/06/22 07:07:47;;;;;;;11.40;8.00;;;;;;;26.42;86.58;96528.31;4938811;29;20218;-60
2023/06/22 07:10:16;;;;;;;9.70;7.20;;;;;;;26.15;87.24;96543.50;4938214;29;20218;-61
2023/06/22 07:12:42;;;;;;;13.25;8.38;;;;;;;25.83;88.72;96551.28;4942092;29;20227;-60
2023/06/22 07:15:11;;;;;;;14.15;7.78;;;;;;;25.68;90.13;96573.47;4939522;29;20222;-62
2023/06/22 07:17:39;;;;;;;9.95;8.05;;;;;;;25.40;91.22;96595.03;4948559;29;20211;-60
2023/06/22 07:20:10;;;;;;;12.35;8.00;;;;;;;24.98;93.19;96612.47;4938215;29;20243;-60
2023/06/22 07:22:36;;;;;;;12.10;7.88;;;;;;;24.43;97.86;96636.19;4937736;29;20215;-60
2023/06/22 07:25:08;;;;;;;13.32;8.20;;;;;;;24.10;99.97;96687.94;4938030;29;20214;-59
2023/06/22 07:27:42;;;;;;;13.40;8.57;;;;;;;23.75;100.00;96653.47;4938261;29;20207;-58
2023/06/22 07:30:10;;;;;;;9.15;6.93;;;;;;;23.78;100.00;96635.97;4944770;29;20207;-58
2023/06/22 07:32:37;;;;;;;13.90;8.55;;;;;;;23.53;100.00;96700.00;4944648;28;20202;-59
2023/06/22 07:35:07;;;;;;;11.75;9.05;;;;;;;23.28;100.00;96689.22;4943897;29;20644;-59
2023/06/22 07:37:36;;;;;;;14.00;8.20;;;;;;;23.23;100.00;96699.84;4957170;29;20222;-58
2023/06/22 07:40:07;;;;;;;13.57;8.50;;;;;;;23.14;100.00;96668.78;4940242;29;20211;-59
2023/06/22 07:42:36;;;;;;;13.45;8.90;;;;;;;23.10;100.00;96662.19;4947853;29;20198;-59
2023/06/22 07:45:08;;;;;;;11.93;8.15;;;;;;;23.12;100.00;96662.78;4937837;29;20215;-59
2023/06/22 07:47:37;;;;;;;12.18;8.80;;;;;;;23.18;100.00;96635.75;4939083;28;20230;-59
2023/06/22 07:50:05;;;;;;;10.38;7.30;;;;;;;23.25;100.00;96617.63;4937881;29;20238;-60
2023/06/22 07:52:33;;;;;;;10.10;7.18;;;;;;;23.57;100.00;96658.84;4938012;29;20211;-59
2023/06/22 07:55:02;;;;;;;10.80;7.93;;;;;;;23.85;100.00;96655.63;4942789;29;20206;-59
2023/06/22 07:57:33;;;;;;;13.32;8.15;;;;;;;24.29;100.00;96638.28;4941423;29;20575;-60
2023/06/22 08:00:03;;;;;;;9.48;8.07;;;;;;;24.64;99.65;96632.97;4937846;29;20218;-60
2023/06/22 08:02:30;;;;;;;12.77;6.78;;;;;;;25.23;100.00;96626.59;4953021;29;20229;-60
2023/06/22 08:04:56;;;;;;;14.40;7.20;;;;;;;25.77;99.70;96632.72;4962364;29;20219;-59
2023/06/22 08:07:25;;;;;;;7.60;6.70;;;;;;;26.20;95.41;96622.25;4952796;29;20214;-61
2023/06/22 08:09:52;;;;;;;10.13;6.88;;;;;;;26.45;94.93;96625.44;4966278;29;20202;-60
2023/06/22 08:12:18;;;;;;;9.20;6.88;;;;;;;26.44;91.06;96620.25;4957526;29;20218;-58
2023/06/22 08:14:45;;;;;;;11.70;7.72;;;;;;;26.14;89.87;96605.03;4958561;29;20213;-60
2023/06/22 08:17:14;;;;;;;9.38;7.25;;;;;;;26.14;89.47;96601.50;4943946;29;20221;-60
2023/06/22 08:19:40;;;;;;;10.80;7.47;;;;;;;26.00;89.44;96603.69;4954683;29;20237;-60
2023/06/22 08:22:07;;;;;;;11.07;7.07;;;;;;;26.15;89.75;96603.13;4944134;29;20585;-60
2023/06/22 08:24:34;;;;;;;11.65;7.53;;;;;;;26.38;90.44;96624.78;4939920;29;20226;-59
2023/06/22 08:27:00;;;;;;;12.45;7.63;;;;;;;26.40;87.07;96617.19;4941334;29;20226;-60
2023/06/22 08:29:26;;;;;;;7.00;6.30;;;;;;;26.60;87.47;96614.88;4952629;29;20301;-61
2023/06/22 08:31:54;;;;;;;14.07;7.35;;;;;;;26.53;85.37;96611.50;4948367;29;20217;-60
2023/06/22 08:34:24;;;;;;;10.98;6.90;;;;;;;26.76;86.12;96605.09;4960859;29;20206;-60
2023/06/22 08:36:51;;;;;;;11.85;7.03;;;;;;;27.02;87.36;96595.50;4942973;29;20211;-59
2023/06/22 08:39:17;;;;;;;12.10;6.75;;;;;;;27.09;84.01;96604.31;4943975;29;20214;-59
2023/06/22 08:41:44;;;;;;;12.60;7.30;;;;;;;27.09;84.06;96604.31;4945638;29;20215;-61
2023/06/22 08:44:11;;;;;;;11.27;7.93;;;;;;;27.23;83.77;96600.19;4956512;29;20280;-60
2023/06/22 08:46:40;;;;;;;10.48;6.93;;;;;;;27.46;81.94;96601.88;4951660;28;20239;-61
2023/06/22 08:49:07;;;;;;;17.73;8.07;;;;;;;27.50;80.71;96594.88;4950946;29;20218;-59
2023/06/22 08:51:35;;;;;;;11.70;6.82;;;;;;;27.57;79.74;96585.50;4946066;29;20280;-59
2023/06/22 08:54:06;;;;;;;9.82;5.95;;;;;;;27.82;81.35;96586.88;4937622;29;20232;-59
2023/06/22 08:56:33;;;;;;;13.70;6.90;;;;;;;27.84;79.92;96572.00;4948613;29;20207;-60
2023/06/22 08:59:00;;;;;;;13.13;7.20;;;;;;;27.64;79.31;96575.25;4937410;29;20215;-59
2023/06/22 09:01:33;;;;;;;11.18;6.72;;;;;;;27.56;79.13;96570.25;4936962;29;20267;-59
2023/06/22 09:04:00;;;;;;;9.75;6.90;;;;;;;27.48;80.25;96564.44;4937206;29;20323;-59
2023/06/22 09:06:27;;;;;;;9.05;6.28;;;;;;;27.45;80.15;96564.97;4938006;29;20219;-60
2023/06/22 09:08:54;;;;;;;13.50;6.72;;;;;;;27.59;80.87;96567.06;4936873;29;20222;-61
2023/06/22 09:11:21;;;;;;;12.02;6.35;;;;;;;27.61;80.85;96570.34;4938897;29;20230;-59
2023/06/22 09:13:47;;;;;;;14.07;7.63;;;;;;;27.60;79.49;96578.72;4944350;29;20235;-60
2023/06/22 09:16:14;;;;;;;8.65;6.60;;;;;;;27.35;79.42;96576.44;4940331;29;20218;-60
2023/06/22 09:18:41;;;;;;;7.97;6.45;;;;;;;27.40;79.84;96570.28;4940182;29;20310;-59
2023/06/22 09:21:08;;;;;;;9.60;6.68;;;;;;;27.60;80.28;96563.25;4949358;29;20644;-60
2023/06/22 09:23:34;;;;;;;13.90;8.27;;;;;;;27.52;76.95;96557.44;4943583;29;20552;-60
2023/06/22 09:26:02;;;;;;;11.77;7.45;;;;;;;27.76;78.10;96558.84;4940484;29;20219;-59
2023/06/22 09:28:30;;;;;;;13.77;6.68;;;;;;;28.05;79.90;96554.00;4940596;29;20308;-60
2023/06/22 09:30:58;;;;;;;11.27;7.75;;;;;;;27.99;76.22;96550.41;4957364;29;20546;-61
2023/06/22 09:33:28;;;;;;;9.35;6.75;;;;;;;28.33;76.37;96551.06;4953924;28;20373;-60
2023/06/22 09:35:54;;;;;;;10.32;7.25;;;;;;;28.48;75.36;96540.34;4940193;29;20631;-61
2023/06/22 09:38:23;;;;;;;9.10;6.93;;;;;;;28.48;73.97;96534.91;4940441;29;20228;-60
2023/06/22 09:40:49;;;;;;;9.90;7.32;;;;;;;28.24;73.81;96540.88;4940294;29;20294;-59
2023/06/22 09:43:17;;;;;;;9.27;6.22;;;;;;;28.33;75.18;96529.31;4952939;29;20222;-59
2023/06/22 09:45:44;;;;;;;10.77;6.93;;;;;;;28.14;74.11;96528.03;4939925;28;20217;-59
2023/06/22 09:48:12;;;;;;;10.38;6.95;;;;;;;28.04;74.93;96526.00;4939832;29;20218;-59
2023/06/22 09:50:40;;;;;;;9.18;6.50;;;;;;;27.96;76.16;96503.88;4945487;29;20203;-60
2023/06/22 09:53:09;;;;;;;12.13;6.63;;;;;;;27.93;76.68;96493.50;4939918;29;20262;-60
2023/06/22 09:55:36;;;;;;;9.70;7.60;;;;;;;27.81;76.39;96477.34;4947988;29;20211;-60
2023/06/22 09:58:02;;;;;;;6.45;5.78;;;;;;;28.00;76.17;96489.53;4939363;29;20540;-60
2023/06/22 10:00:30;;;;;;;14.55;7.20;;;;;;;28.16;76.26;96494.06;4939407;29;20234;-59
2023/06/22 10:02:57;;;;;;;10.45;6.47;;;;;;;28.34;75.71;96490.13;4938975;29;20207;-59
2023/06/22 10:05:24;;;;;;;10.35;6.35;;;;;;;28.49;77.11;96484.00;4939243;29;20231;-60
2023/06/22 10:07:51;;;;;;;12.50;6.78;;;;;;;28.45;74.85;96483.69;4939477;29;20225;-59
2023/06/22 10:10:18;;;;;;;8.95;5.75;;;;;;;28.39;74.38;96481.19;4939232;29;20215;-60
2023/06/22 10:12:46;;;;;;;10.45;6.20;;;;;;;28.17;73.60;96478.56;4943086;29;20249;-59
2023/06/22 10:15:13;;;;;;;8.88;6.03;;;;;;;28.07;74.43;96473.03;4957708;29;20309;-61
2023/06/22 10:17:41;;;;;;;10.27;6.82;;;;;;;27.92;74.83;96473.66;4957689;29;20206;-59
2023/06/22 10:20:12;;;;;;;6.38;5.78;;;;;;;27.94;75.52;96459.81;4944252;29;20222;-59
2023/06/22 10:22:39;;;;;;;8.20;5.82;;;;;;;27.88;78.53;96472.53;4938973;29;20294;-60
2023/06/22 10:25:07;;;;;;;7.70;5.80;;;;;;;27.70;76.47;96470.97;4939051;29;20782;-60
2023/06/22 10:27:34;;;;;;;13.73;7.15;;;;;;;27.60;77.11;96470.03;4939687;29;20215;-61
2023/06/22 10:30:00;;;;;;;10.63;7.50;;;;;;;27.59;76.23;96469.25;4939018;29;20211;-58
2023/06/22 10:32:28;;;;;;;11.85;6.75;;;;;;;27.62;75.57;96462.47;4945264;28;20206;-60
2023/06/22 10:34:56;;;;;;;8.63;6.70;;;;;;;27.57;75.24;96459.69;4945714;29;20206;-59
2023/06/22 10:37:23;;;;;;;9.27;6.35;;;;;;;27.65;76.75;96468.22;4947271;29;20219;-60
2023/06/22 10:39:51;;;;;;;6.75;6.03;;;;;;;27.77;77.26;96465.38;4938951;29;20211;-60
2023/06/22 10:42:17;;;;;;;9.63;6.13;;;;;;;27.91;77.28;96460.34;4938960;29;20222;-60
2023/06/22 10:44:44;;;;;;;8.75;6.18;;;;;;;28.01;76.55;96457.72;4936557;29;20231;-59
2023/06/22 10:47:12;;;;;;;7.20;5.95;;;;;;;27.99;75.83;96457.97;4939611;28;20659;-60
2023/06/22 10:49:39;;;;;;;8.27;6.88;;;;;;;28.10;76.19;96467.06;4939069;29;20239;-58
2023/06/22 10:52:08;;;;;;;6.68;6.00;;;;;;;28.21;77.27;96466.09;4938246;29;20211;-60
2023/06/22 10:54:34;;;;;;;8.93;6.35;;;;;;;28.42;76.85;96476.06;4939989;29;20207;-59
2023/06/22 10:57:02;;;;;;;8.57;6.80;;;;;;;28.67;77.16;96483.63;4945964;29;20226;-60
2023/06/22 10:59:29;;;;;;;10.27;7.70;;;;;;;28.58;77.42;96491.44;4938838;29;20222;-60
2023/06/22 11:01:56;;;;;;;10.02;6.60;;;;;;;28.68;77.21;96493.44;4950355;29;20203;-61
2023/06/22 11:04:22;;;;;;;9.73;7.03;;;;;;;28.62;76.51;96497.19;4939201;29;20261;-60
2023/06/22 11:06:49;;;;;;;8.32;5.88;;;;;;;28.60;77.29;96489.28;4938727;29;20222;-60
2023/06/22 11:09:20;;;;;;;10.55;6.75;;;;;;;28.54;79.32;96493.03;4938781;29;20555;-58
2023/06/22 11:11:47;;;;;;;6.68;5.88;;;;;;;28.50;78.70;96507.41;4942631;29;20198;-59
2023/06/22 11:14:14;;;;;;;10.23;5.95;;;;;;;28.42;77.61;96506.00;4938293;29;20243;-59
2023/06/22 11:16:40;;;;;;;9.85;6.15;;;;;;;28.44;79.60;96517.44;4921557;29;20211;-59
2023/06/22 11:19:07;;;;;;;11.85;6.70;;;;;;;28.38;80.01;96515.75;4938473;29;20222;-60
2023/06/22 11:21:33;;;;;;;9.55;6.25;;;;;;;28.32;78.55;96516.78;4937603;29;20211;-59
2023/06/22 11:24:00;;;;;;;8.82;5.95;;;;;;;28.32;76.98;96516.78;4937671;29;20554;-59
2023/06/22 11:26:28;;;;;;;9.23;5.95;;;;;;;28.24;75.25;96508.25;4937620;29;20211;-60